createdAt,value
2023-04-14T00:02:06.925Z,7.50
2023-04-14T00:04:36.993Z,8.00
2023-04-14T00:07:08.219Z,8.10
2023-04-14T00:09:39.217Z,7.90
2023-04-14T00:12:10.691Z,8.00
2023-04-14T00:14:43.399Z,6.60
2023-04-14T00:17:15.507Z,7.00
2023-04-14T00:19:46.877Z,7.90
2023-04-14T00:22:18.570Z,7.10
2023-04-14T00:24:50.987Z,7.50
2023-04-14T00:27:21.933Z,7.20
2023-04-14T00:29:53.024Z,7.30
2023-04-14T00:32:24.022Z,6.50
2023-04-14T00:35:05.532Z,8.00
2023-04-14T00:37:36.409Z,7.10
2023-04-14T00:40:11.036Z,7.80
2023-04-14T00:42:47.286Z,7.60
2023-04-14T00:45:18.348Z,7.90
2023-04-14T00:47:51.277Z,7.20
2023-04-14T00:50:23.742Z,8.10
2023-04-14T00:52:57.754Z,8.00
2023-04-14T00:55:29.020Z,7.90
2023-04-14T00:58:00.329Z,7.90
2023-04-14T01:00:31.732Z,10.00
2023-04-14T01:03:05.292Z,8.50
2023-04-14T01:05:42.371Z,10.00
2023-04-14T01:08:13.682Z,10.00
2023-04-14T01:10:55.416Z,10.90
2023-04-14T01:13:37.152Z,10.90
2023-04-14T01:16:16.009Z,9.80
2023-04-14T01:18:53.934Z,11.20
2023-04-14T01:21:33.869Z,10.70
2023-04-14T01:24:27.557Z,10.80
2023-04-14T01:27:09.404Z,9.00
2023-04-14T01:29:56.813Z,11.20
2023-04-14T01:32:31.572Z,11.50
2023-04-14T01:35:20.986Z,12.20
2023-04-14T01:45:36.674Z,11.90
2023-04-14T01:48:22.375Z,11.90
2023-04-14T01:50:55.046Z,9.70
2023-04-14T01:53:31.180Z,10.70
2023-04-14T01:56:04.431Z,10.90
2023-04-14T01:58:37.632Z,10.10
2023-04-14T02:01:10.285Z,10.40
2023-04-14T02:03:43.951Z,11.60
2023-04-14T02:06:16.145Z,11.30
2023-04-14T02:08:47.882Z,11.20
2023-04-14T02:11:20.349Z,11.00
2023-04-14T02:13:52.865Z,11.50
2023-04-14T02:16:26.092Z,11.70
2023-04-14T02:18:57.717Z,11.50
2023-04-14T02:21:32.917Z,11.90
2023-04-14T02:24:06.827Z,11.00
2023-04-14T02:26:42.007Z,11.10
2023-04-14T02:31:47.681Z,9.80
2023-04-14T02:34:25.134Z,11.50
2023-04-14T02:36:58.630Z,11.30
2023-04-14T02:39:37.430Z,11.20
2023-04-14T02:42:16.213Z,11.90
2023-04-14T02:44:52.856Z,11.30
2023-04-14T02:47:31.263Z,11.30
2023-04-14T02:50:06.678Z,11.40
2023-04-14T02:52:39.551Z,12.00
2023-04-14T02:55:13.443Z,11.70
2023-04-14T02:57:44.557Z,11.40
2023-04-14T03:00:17.354Z,12.40
2023-04-14T03:05:21.834Z,11.30
2023-04-14T03:07:58.556Z,10.70
2023-04-14T03:10:30.117Z,11.70
2023-04-14T03:13:04.727Z,10.90
2023-04-14T03:15:37.299Z,11.90
2023-04-14T03:21:03.645Z,10.90
2023-04-14T03:23:37.776Z,11.10
2023-04-14T03:26:12.781Z,11.40
2023-04-14T03:28:45.365Z,11.70
2023-04-14T03:31:19.129Z,11.70
2023-04-14T03:33:57.565Z,11.70
2023-04-14T03:36:35.572Z,12.20
2023-04-14T03:39:09.471Z,12.50
2023-04-14T03:41:48.056Z,12.20
2023-04-14T03:44:21.330Z,11.50
2023-04-14T03:46:55.755Z,13.50
2023-04-14T03:49:29.023Z,10.50
2023-04-14T03:52:03.809Z,12.40
2023-04-14T03:54:39.233Z,11.90
2023-04-14T03:57:13.113Z,11.90
2023-04-14T03:59:46.003Z,13.00
2023-04-14T04:02:18.288Z,13.30
2023-04-14T04:04:51.808Z,12.90
2023-04-14T04:07:24.961Z,14.00
2023-04-14T04:09:57.755Z,12.20
2023-04-14T04:12:29.397Z,14.90
2023-04-14T04:15:00.771Z,13.80
2023-04-14T04:17:33.868Z,14.20
2023-04-14T04:20:11.252Z,14.90
2023-04-14T04:22:45.570Z,14.80
2023-04-14T04:25:17.278Z,26.00
2023-04-14T04:27:54.105Z,17.90
2023-04-14T04:30:29.035Z,14.60
2023-04-14T04:33:00.214Z,14.00
2023-04-14T04:35:32.954Z,13.10
2023-04-14T04:38:05.570Z,14.70
2023-04-14T04:40:40.528Z,13.40
2023-04-14T04:43:20.302Z,13.50
2023-04-14T04:46:31.769Z,14.30
2023-04-14T04:49:03.558Z,13.00
2023-04-14T04:51:34.732Z,14.60
2023-04-14T04:54:07.167Z,13.30
2023-04-14T04:56:38.299Z,12.00
2023-04-14T04:59:10.926Z,13.50
2023-04-14T05:01:42.414Z,13.80
2023-04-14T05:04:13.424Z,12.90
2023-04-14T05:06:44.507Z,12.80
2023-04-14T05:09:15.540Z,13.20
2023-04-14T05:11:46.649Z,14.10
2023-04-14T05:14:17.668Z,13.70
2023-04-14T05:16:48.715Z,14.20
2023-04-14T05:19:19.628Z,14.30
2023-04-14T05:21:51.242Z,18.80
2023-04-14T05:24:22.368Z,14.50
2023-04-14T05:27:12.489Z,15.40
2023-04-14T05:29:44.785Z,14.40
2023-04-14T05:32:15.850Z,15.50
2023-04-14T05:34:46.815Z,14.50
2023-04-14T05:37:17.866Z,17.20
2023-04-14T05:39:49.101Z,14.90
2023-04-14T05:42:22.740Z,17.10
2023-04-14T05:44:53.692Z,15.80
2023-04-14T05:47:25.344Z,15.70
2023-04-14T05:49:56.828Z,16.50
2023-04-14T05:52:27.868Z,15.40
2023-04-14T05:54:59.213Z,16.00
2023-04-14T05:57:31.068Z,16.00
2023-04-14T06:00:02.604Z,17.20
2023-04-14T06:02:44.919Z,15.30
2023-04-14T06:05:16.094Z,15.50
2023-04-14T06:07:47.354Z,16.60
2023-04-14T06:10:18.369Z,15.80
2023-04-14T06:12:49.395Z,15.60
2023-04-14T06:15:20.414Z,14.90
2023-04-14T06:17:52.156Z,14.20
2023-04-14T06:20:23.658Z,13.50
2023-04-14T06:22:54.713Z,14.20
2023-04-14T06:25:25.724Z,13.80
2023-04-14T06:27:57.152Z,14.20
2023-04-14T06:30:28.760Z,13.30
2023-04-14T06:33:02.005Z,12.40
2023-04-14T06:35:35.234Z,14.00
2023-04-14T06:38:08.783Z,11.60
2023-04-14T06:40:40.136Z,12.40
2023-04-14T06:43:11.746Z,11.10
2023-04-14T06:45:43.329Z,10.70
2023-04-14T06:48:15.815Z,11.00
2023-04-14T06:50:53.024Z,11.50
2023-04-14T06:53:24.522Z,11.40
2023-04-14T06:56:00.737Z,12.50
2023-04-14T06:58:32.627Z,10.80
2023-04-14T07:01:04.867Z,12.30
2023-04-14T07:03:36.045Z,10.90
2023-04-14T07:06:09.413Z,13.80
2023-04-14T07:08:41.024Z,12.00
2023-04-14T07:11:13.165Z,10.90
2023-04-14T07:13:44.140Z,9.10
2023-04-14T07:16:15.133Z,9.10
2023-04-14T07:18:46.412Z,9.50
2023-04-14T07:21:17.484Z,9.30
2023-04-14T07:23:48.907Z,8.90
2023-04-14T07:26:20.009Z,8.10
2023-04-14T07:28:52.396Z,8.60
2023-04-14T07:31:23.571Z,7.90
2023-04-14T07:33:54.818Z,6.90
2023-04-14T07:36:26.443Z,6.70
2023-04-14T07:38:57.447Z,6.50
2023-04-14T07:41:29.395Z,6.00
2023-04-14T07:44:00.531Z,6.50
2023-04-14T07:46:32.322Z,6.50
2023-04-14T07:50:39.853Z,5.20
2023-04-14T07:53:02.969Z,5.20
2023-04-14T07:55:33.934Z,5.60
2023-04-14T07:58:04.976Z,5.40
2023-04-14T08:00:36.027Z,5.20
2023-04-14T08:03:07.054Z,5.50
2023-04-14T08:05:38.328Z,5.70
2023-04-14T08:08:10.292Z,4.70
2023-04-14T08:10:44.838Z,4.50
2023-04-14T08:13:15.891Z,5.00
2023-04-14T08:15:46.926Z,4.10
2023-04-14T08:18:20.400Z,4.60
2023-04-14T08:20:53.193Z,5.10
2023-04-14T08:23:24.157Z,4.50
2023-04-14T08:25:55.097Z,8.50
2023-04-14T08:28:26.411Z,5.30
2023-04-14T08:30:57.489Z,5.00
2023-04-14T08:33:28.547Z,4.60
2023-04-14T08:36:00.593Z,4.80
2023-04-14T08:38:32.204Z,4.60
2023-04-14T08:41:06.459Z,5.70
2023-04-14T08:43:37.489Z,4.50
2023-04-14T08:46:10.622Z,4.80
2023-04-14T08:48:51.594Z,4.50
2023-04-14T08:51:35.320Z,4.90
2023-04-14T08:54:10.589Z,4.80
2023-04-14T08:56:43.676Z,4.10
2023-04-14T08:59:14.808Z,4.20
2023-04-14T09:02:41.794Z,8.40
2023-04-14T09:05:32.555Z,4.30
2023-04-14T09:08:06.682Z,4.40
2023-04-14T09:10:38.131Z,4.70
2023-04-14T09:13:12.824Z,5.20
2023-04-14T09:15:45.506Z,4.60
2023-04-14T09:18:20.929Z,4.90
2023-04-14T09:21:50.923Z,4.30
2023-04-14T09:23:45.090Z,4.30
2023-04-14T09:26:16.396Z,4.50
2023-04-14T09:28:47.542Z,4.00
2023-04-14T09:31:19.870Z,4.60
2023-04-14T09:33:53.184Z,4.80
2023-04-14T09:36:25.987Z,5.00
2023-04-14T09:39:00.614Z,5.00
2023-04-14T09:46:26.962Z,4.90
2023-04-14T09:49:31.293Z,5.10
2023-04-14T09:52:06.975Z,5.40
2023-04-14T10:02:05.770Z,5.40
2023-04-14T10:04:37.598Z,5.60
2023-04-14T10:07:48.949Z,5.30
2023-04-14T10:10:54.205Z,4.70
2023-04-14T10:17:40.496Z,4.60
2023-04-14T10:21:14.885Z,5.50
2023-04-14T10:23:47.332Z,4.80
2023-04-14T10:26:36.805Z,5.50
2023-04-14T10:30:05.784Z,4.20
2023-04-14T10:53:56.897Z,5.60
2023-04-14T10:56:25.754Z,5.20
2023-04-14T10:58:58.487Z,4.80
2023-04-14T11:01:31.109Z,4.50
2023-04-14T11:04:16.719Z,4.80
2023-04-14T11:07:09.607Z,5.00
2023-04-14T11:09:38.501Z,5.40
2023-04-14T11:12:24.348Z,6.70
2023-04-14T11:15:01.506Z,5.50
2023-04-14T11:17:32.522Z,5.00
2023-04-14T11:20:10.480Z,4.50
2023-04-14T11:22:40.907Z,4.30
2023-04-14T11:25:13.041Z,5.10
2023-04-14T11:27:42.623Z,5.20
2023-04-14T11:30:15.851Z,5.20
2023-04-14T11:32:49.888Z,4.60
2023-04-14T11:35:18.847Z,4.30
2023-04-14T11:37:47.889Z,4.40
2023-04-14T11:40:16.774Z,4.70
2023-04-14T11:43:27.928Z,4.00
2023-04-14T11:45:57.729Z,4.30
2023-04-14T11:52:20.557Z,4.20
2023-04-14T11:54:49.046Z,4.40
2023-04-14T12:01:15.240Z,5.30
2023-04-14T12:03:44.374Z,4.30
2023-04-14T12:07:01.237Z,3.90
2023-04-14T12:09:09.575Z,3.80
2023-04-14T12:11:37.890Z,4.00
2023-04-14T12:14:06.389Z,4.40
2023-04-14T12:16:35.122Z,4.40
2023-04-14T12:19:04.353Z,3.90
2023-04-14T12:21:32.946Z,3.50
2023-04-14T12:24:01.887Z,3.60
2023-04-14T12:26:32.146Z,4.20
2023-04-14T12:29:01.159Z,3.90
2023-04-14T12:31:54.236Z,3.80
2023-04-14T12:34:26.416Z,3.80
2023-04-14T12:36:55.348Z,3.40
2023-04-14T12:39:26.866Z,3.40
2023-04-14T12:41:59.094Z,3.10
2023-04-14T12:44:27.570Z,3.10
2023-04-14T12:47:50.528Z,2.30
2023-04-14T12:50:29.914Z,2.50
2023-04-14T12:57:14.786Z,2.80
2023-04-14T12:59:43.240Z,2.50
2023-04-14T13:02:12.260Z,2.30
2023-04-14T13:04:40.665Z,2.20
2023-04-14T13:07:08.911Z,2.30
2023-04-14T13:12:58.878Z,2.60
2023-04-14T13:16:12.157Z,2.80
2023-04-14T13:18:17.597Z,3.40
2023-04-14T13:20:53.690Z,3.10
2023-04-14T13:23:22.303Z,3.60
2023-04-14T13:25:50.888Z,3.70
2023-04-14T13:28:19.130Z,3.20
2023-04-14T13:30:48.180Z,3.10
2023-04-14T13:33:16.733Z,3.40
2023-04-14T13:35:45.286Z,2.80
2023-04-14T13:38:13.651Z,3.20
2023-04-14T13:45:15.789Z,3.20
2023-04-14T13:47:54.651Z,3.30
2023-04-14T13:53:08.796Z,3.60
2023-04-14T13:55:37.222Z,3.40
2023-04-14T13:59:18.479Z,3.20
2023-04-14T14:02:23.235Z,3.20
2023-04-14T14:05:11.676Z,3.70
2023-04-14T14:07:39.954Z,2.90
2023-04-14T14:10:10.184Z,2.90
2023-04-14T14:12:52.751Z,2.60
2023-04-14T14:15:46.033Z,2.90
2023-04-14T14:18:17.509Z,2.80
2023-04-14T14:20:46.509Z,3.40
2023-04-14T14:23:15.714Z,3.60
2023-04-14T14:25:44.889Z,3.50
2023-04-14T14:28:13.356Z,2.80
2023-04-14T14:30:41.574Z,3.30
2023-04-14T14:33:21.891Z,2.70
2023-04-14T14:35:51.962Z,3.50
2023-04-14T14:38:20.346Z,3.60
2023-04-14T14:40:48.536Z,2.80
2023-04-14T14:43:59.223Z,3.70
2023-04-14T14:46:28.504Z,3.20
2023-04-14T14:48:57.742Z,3.50
2023-04-14T14:51:27.151Z,3.20
2023-04-14T14:54:07.043Z,2.90
2023-04-14T14:56:53.057Z,3.40
2023-04-14T15:00:08.054Z,3.30
2023-04-14T15:02:51.033Z,3.60
2023-04-14T15:05:19.636Z,3.90
2023-04-14T15:07:47.889Z,3.90
2023-04-14T15:10:16.393Z,4.20
2023-04-14T15:13:01.670Z,3.70
2023-04-14T15:15:29.882Z,4.00
2023-04-14T15:17:58.620Z,3.40
2023-04-14T15:20:27.187Z,4.20
2023-04-14T15:22:56.371Z,3.60
2023-04-14T15:25:25.028Z,3.30
2023-04-14T15:27:53.220Z,3.90
2023-04-14T15:30:23.265Z,5.10
2023-04-14T15:32:51.893Z,4.50
2023-04-14T15:35:20.410Z,4.70
2023-04-14T15:38:00.975Z,5.10
2023-04-14T15:40:29.410Z,5.10
2023-04-14T15:43:03.532Z,4.50
2023-04-14T15:45:31.788Z,4.70
2023-04-14T15:48:00.058Z,4.40
2023-04-14T15:50:44.413Z,5.20
2023-04-14T15:53:45.762Z,4.70
2023-04-14T15:56:15.479Z,4.30
2023-04-14T15:58:43.672Z,4.40
2023-04-14T16:01:11.822Z,4.80
2023-04-14T16:03:40.857Z,4.50
2023-04-14T16:06:10.087Z,4.80
2023-04-14T16:08:38.403Z,4.90
2023-04-14T16:11:07.267Z,4.90
2023-04-14T16:13:35.403Z,4.60
2023-04-14T16:16:03.683Z,6.40
2023-04-14T16:18:31.907Z,4.90
2023-04-14T16:21:00.200Z,5.00
2023-04-14T16:23:28.983Z,4.20
2023-04-14T16:25:57.417Z,4.30
2023-04-14T16:28:26.436Z,4.10
2023-04-14T16:30:55.189Z,4.40
2023-04-14T16:33:23.920Z,3.90
2023-04-14T16:35:52.124Z,4.10
2023-04-14T16:38:20.590Z,4.00
2023-04-14T16:40:56.723Z,4.10
2023-04-14T16:43:27.431Z,3.00
2023-04-14T16:46:01.807Z,3.90
2023-04-14T16:48:30.718Z,3.70
2023-04-14T16:51:04.286Z,3.60
2023-04-14T16:53:32.432Z,3.70
2023-04-14T16:56:04.525Z,4.00
2023-04-14T16:58:32.733Z,4.50
2023-04-14T17:01:01.213Z,4.30
2023-04-14T17:03:30.453Z,3.40
2023-04-14T17:05:58.789Z,4.40
2023-04-14T17:08:30.556Z,3.80
2023-04-14T17:11:01.482Z,4.60
2023-04-14T17:13:30.169Z,4.40
2023-04-14T17:16:08.279Z,4.40
2023-04-14T17:18:38.044Z,4.20
2023-04-14T17:21:06.764Z,4.60
2023-04-14T17:23:36.955Z,5.10
2023-04-14T17:26:05.880Z,4.40
2023-04-14T17:28:35.161Z,4.50
2023-04-14T17:31:41.856Z,5.10
2023-04-14T17:34:39.775Z,4.00
2023-04-14T17:37:08.772Z,4.90
2023-04-14T17:43:19.194Z,5.40
2023-04-14T17:45:58.840Z,5.20
2023-04-14T17:48:31.234Z,5.50
2023-04-14T18:09:50.998Z,6.00
2023-04-14T18:12:25.382Z,5.80
2023-04-14T18:19:48.316Z,6.10
2023-04-14T18:22:22.974Z,5.80
2023-04-14T18:25:09.342Z,6.30
2023-04-14T18:39:48.324Z,6.50
2023-04-14T18:46:41.471Z,7.10
2023-04-14T18:56:53.163Z,7.90
2023-04-14T18:59:29.689Z,5.80
2023-04-14T19:02:00.864Z,7.10
2023-04-14T19:04:36.357Z,6.30
2023-04-14T19:07:08.705Z,5.90
2023-04-14T19:09:42.184Z,7.00
2023-04-14T19:12:25.527Z,7.30
2023-04-14T19:14:59.176Z,7.80
2023-04-14T19:17:36.267Z,6.10
2023-04-14T19:20:11.961Z,6.50
2023-04-14T19:22:42.994Z,7.10
2023-04-14T19:26:20.285Z,6.80
2023-04-14T19:28:53.063Z,6.90
2023-04-14T19:31:27.644Z,7.40
2023-04-14T19:33:58.808Z,7.50
2023-04-14T19:36:32.431Z,7.90
2023-04-14T19:39:04.128Z,6.40
2023-04-14T19:45:32.423Z,6.00
2023-04-14T19:48:10.095Z,6.80
2023-04-14T19:50:52.193Z,7.60
2023-04-14T19:53:24.510Z,7.80
2023-04-14T19:55:58.176Z,8.30
2023-04-14T19:58:33.338Z,7.40
2023-04-14T20:01:07.268Z,7.10
2023-04-14T20:03:38.697Z,7.70
2023-04-14T20:06:29.724Z,7.80
2023-04-14T20:09:02.161Z,7.50
2023-04-14T20:11:37.261Z,7.70
2023-04-14T20:14:08.468Z,8.40
2023-04-14T20:16:40.857Z,7.50
2023-04-14T20:19:13.907Z,7.70
2023-04-14T20:21:45.034Z,8.50
2023-04-14T20:24:17.860Z,7.30
2023-04-14T20:26:49.009Z,7.10
2023-04-14T20:29:20.236Z,8.60
2023-04-14T20:31:51.583Z,7.40
2023-04-14T20:34:23.239Z,7.50
2023-04-14T20:36:57.326Z,7.80
2023-04-14T20:39:28.455Z,8.40
2023-04-14T20:42:03.283Z,8.40
2023-04-14T20:44:34.512Z,7.20
2023-04-14T20:47:17.456Z,8.40
2023-04-14T20:54:28.532Z,8.20
2023-04-14T20:59:44.954Z,7.40
2023-04-14T21:02:37.477Z,6.70
2023-04-14T21:05:17.884Z,7.50
2023-04-14T21:07:51.293Z,9.30
2023-04-14T21:10:22.541Z,9.30
2023-04-14T21:15:28.256Z,7.30
2023-04-14T21:15:54.514Z,8.60
2023-04-14T21:18:27.723Z,7.70
2023-04-14T21:21:00.904Z,8.20
2023-04-14T21:23:32.260Z,7.20
2023-04-14T21:26:03.468Z,8.70
2023-04-14T21:28:35.657Z,8.10
2023-04-14T21:31:07.993Z,6.80
2023-04-14T21:33:39.706Z,7.40
2023-04-14T21:36:13.624Z,7.50
2023-04-14T21:38:45.391Z,8.60
2023-04-14T21:41:16.692Z,8.70
2023-04-14T21:43:48.011Z,7.40
2023-04-14T21:46:27.452Z,8.40
2023-04-14T21:49:02.159Z,8.00
2023-04-14T21:51:45.565Z,6.80
2023-04-14T21:54:22.486Z,8.60
2023-04-14T21:56:53.910Z,9.00
2023-04-14T21:59:25.515Z,8.80
2023-04-14T22:01:57.435Z,7.90
2023-04-14T22:04:36.638Z,8.60
2023-04-14T22:07:08.896Z,7.60
2023-04-14T22:09:41.619Z,8.10
2023-04-14T22:12:30.555Z,8.40
2023-04-14T22:15:06.682Z,8.90
2023-04-14T22:17:39.725Z,9.00
2023-04-14T22:20:15.889Z,8.20
2023-04-14T22:23:13.814Z,7.40
2023-04-14T22:26:03.643Z,8.20
2023-04-14T22:28:35.194Z,8.50
2023-04-14T22:31:23.023Z,7.70
2023-04-14T22:33:54.162Z,7.00
2023-04-14T22:36:25.964Z,9.10
2023-04-14T22:38:57.206Z,7.60
2023-04-14T22:41:28.447Z,8.80
2023-04-14T22:43:59.496Z,8.90
2023-04-14T22:46:31.051Z,8.20
2023-04-14T22:49:02.371Z,8.30
2023-04-14T22:51:33.707Z,7.90
2023-04-14T22:54:04.968Z,8.20
2023-04-14T22:56:37.338Z,8.10
2023-04-14T22:59:09.038Z,8.30
2023-04-14T23:01:40.256Z,8.40
2023-04-14T23:04:11.537Z,8.80
2023-04-14T23:06:43.850Z,8.80
2023-04-14T23:09:15.546Z,8.10
2023-04-14T23:11:46.929Z,8.40
2023-04-14T23:14:18.103Z,7.90
2023-04-14T23:16:49.393Z,8.80
2023-04-14T23:19:20.784Z,8.30
2023-04-14T23:21:52.621Z,8.40
2023-04-14T23:24:23.883Z,8.00
2023-04-14T23:26:55.111Z,7.60
2023-04-14T23:29:26.616Z,7.90
2023-04-14T23:31:57.892Z,7.00
2023-04-14T23:34:29.943Z,8.00
2023-04-14T23:37:01.114Z,8.80
2023-04-14T23:39:32.817Z,7.90
2023-04-14T23:42:04.509Z,8.50
2023-04-14T23:44:35.658Z,7.80
2023-04-14T23:47:08.518Z,7.70
2023-04-14T23:49:39.894Z,8.60
2023-04-14T23:52:11.444Z,8.40
2023-04-14T23:54:42.962Z,7.60
2023-04-14T23:57:14.074Z,7.80
2023-04-14T23:59:45.756Z,6.30
